Time;durP1;ratioP1;P1;durP2;ratioP2;P2;SDS_P1;SDS_P2;PMS_P1;PMS_P2;Temp;Humidity;BMP_temperature;BMP_pressure;BME280_temperature;BME280_humidity;BME280_pressure;Samples;Min_cycle;Max_cycle;Signal;HPM_P1;HPM_P2
2022/08/15 00:01:22;;;;;;;;;;;22.30;94.60;;;;;;5158742;27;20082;-72
2022/08/15 00:03:52;;;;;;;15.90;9.27;;;22.40;95.10;;;;;;5158110;27;20035;-72
2022/08/15 00:06:31;;;;;;;18.13;8.88;;;22.40;94.50;;;;;;5122670;27;20038;-70
2022/08/15 00:08:59;;;;;;;13.63;8.65;;;22.40;94.60;;;;;;5140127;27;20043;-70
2022/08/15 00:11:32;;;;;;;15.65;8.95;;;22.40;94.50;;;;;;5122276;27;20046;-72
2022/08/15 00:14:07;;;;;;;12.98;8.65;;;22.40;94.70;;;;;;5158009;27;20055;-71
2022/08/15 00:16:36;;;;;;;15.90;9.02;;;22.40;94.80;;;;;;5157771;27;20130;-71
2022/08/15 00:19:30;;;;;;;15.00;8.75;;;22.40;95.00;;;;;;5157558;27;20138;-71
2022/08/15 00:22:01;;;;;;;12.05;8.25;;;22.40;95.20;;;;;;5139924;27;20047;-69
2022/08/15 00:24:30;;;;;;;14.00;9.05;;;22.40;95.40;;;;;;5157727;27;20042;-71
2022/08/15 00:26:58;;;;;;;14.30;9.00;;;22.50;96.20;;;;;;5139316;27;20436;-71
2022/08/15 00:29:26;;;;;;;13.98;8.80;;;22.50;95.50;;;;;;5157077;27;20486;-70
2022/08/15 00:31:55;;;;;;;13.80;8.90;;;22.40;96.00;;;;;;5157351;27;20074;-71
2022/08/15 00:34:22;;;;;;;14.90;9.35;;;22.50;95.60;;;;;;5157443;27;20042;-71
2022/08/15 00:36:49;;;;;;;21.02;10.43;;;22.40;95.40;;;;;;5157280;27;20046;-70
2022/08/15 00:39:20;;;;;;;18.70;11.02;;;22.50;95.40;;;;;;5138625;27;20509;-71
2022/08/15 00:41:48;;;;;;;18.05;10.40;;;22.40;95.30;;;;;;5139276;27;20043;-70
2022/08/15 00:44:19;;;;;;;19.77;11.30;;;22.40;95.50;;;;;;5138589;27;20490;-71
2022/08/15 00:46:54;;;;;;;17.33;10.23;;;22.30;95.70;;;;;;5157695;27;20047;-73
2022/08/15 00:49:21;;;;;;;15.40;9.20;;;22.40;95.90;;;;;;5157322;27;20035;-71
2022/08/15 00:52:11;;;;;;;14.27;9.20;;;22.40;95.70;;;;;;5157401;27;20038;-71
2022/08/15 00:54:54;;;;;;;16.50;9.13;;;22.40;96.00;;;;;;5138881;27;20043;-72
2022/08/15 00:57:22;;;;;;;17.17;9.60;;;22.40;95.70;;;;;;5155828;27;20122;-71
2022/08/15 00:59:52;;;;;;;15.50;9.05;;;22.40;95.90;;;;;;5157381;27;20541;-70
2022/08/15 01:02:22;;;;;;;20.05;9.43;;;22.40;95.90;;;;;;5158317;27;20050;-70
2022/08/15 01:04:48;;;;;;;17.95;9.48;;;22.40;95.80;;;;;;5157085;27;20070;-71
2022/08/15 01:07:14;;;;;;;14.10;9.60;;;22.40;95.70;;;;;;5122192;27;20042;-69
2022/08/15 01:09:41;;;;;;;14.40;9.07;;;22.40;95.70;;;;;;5157445;27;20054;-72
2022/08/15 01:12:20;;;;;;;15.45;9.65;;;22.40;95.80;;;;;;5137787;27;20468;-71
2022/08/15 01:14:49;;;;;;;16.92;9.88;;;22.40;96.20;;;;;;5157362;27;20039;-80
2022/08/15 01:17:16;;;;;;;19.98;9.57;;;22.40;96.10;;;;;;5120829;27;20173;-71
2022/08/15 01:19:55;;;;;;;;;;;22.40;96.50;;;;;;5138417;27;20054;-70
2022/08/15 01:22:43;;;;;;;15.98;9.27;;;22.40;97.30;;;;;;5156479;27;19922;-73
2022/08/15 01:25:23;;;;;;;13.27;9.02;;;22.30;97.00;;;;;;5138033;27;20042;-71
2022/08/15 01:28:07;;;;;;;15.43;9.52;;;22.30;96.60;;;;;;5156150;27;20654;-76
2022/08/15 01:30:40;;;;;;;20.75;8.73;;;22.30;96.60;;;;;;5104034;27;20059;-70
2022/08/15 01:33:07;;;;;;;15.75;9.13;;;22.30;96.80;;;;;;5138235;27;20130;-73
2022/08/15 01:35:34;;;;;;;17.88;9.40;;;22.30;96.60;;;;;;5156711;27;20390;-71
2022/08/15 01:38:01;;;;;;;;;;;22.30;96.60;;;;;;5138113;27;20046;-70
2022/08/15 01:40:57;;;;;;;18.65;8.57;;;22.30;96.70;;;;;;5156351;27;20325;-72
2022/08/15 01:43:28;;;;;;;14.63;9.27;;;22.30;96.70;;;;;;5155797;27;20533;-72
2022/08/15 01:45:56;;;;;;;15.15;8.80;;;22.30;96.30;;;;;;5120396;27;20043;-70
2022/08/15 01:48:34;;;;;;;11.60;8.40;;;22.30;96.10;;;;;;5155873;27;20053;-71
2022/08/15 01:51:06;;;;;;;11.38;7.88;;;22.40;96.30;;;;;;5137234;27;20043;-70
2022/08/15 01:53:38;;;;;;;12.82;8.13;;;22.30;96.20;;;;;;5138039;27;20047;-70
2022/08/15 01:56:25;;;;;;;14.57;8.32;;;22.20;96.30;;;;;;5137269;27;20045;-69
2022/08/15 01:58:52;;;;;;;12.10;7.60;;;22.30;96.20;;;;;;5137156;27;20092;-76
2022/08/15 02:01:34;;;;;;;16.67;7.97;;;22.30;96.10;;;;;;5155827;27;20047;-70
2022/08/15 02:04:01;;;;;;;12.93;7.38;;;22.20;96.00;;;;;;5155972;27;20058;-71
2022/08/15 02:06:29;;;;;;;12.07;8.07;;;22.20;96.00;;;;;;5155541;27;20386;-70
2022/08/15 02:08:56;;;;;;;13.23;7.85;;;22.20;96.30;;;;;;5154881;27;20042;-75
2022/08/15 02:11:26;;;;;;;13.57;8.05;;;22.10;96.00;;;;;;5136774;27;20107;-70
2022/08/15 02:13:55;;;;;;;13.23;8.07;;;22.00;96.10;;;;;;5137828;27;20054;-69
2022/08/15 02:16:30;;;;;;;12.25;7.70;;;22.00;96.40;;;;;;5155361;27;20092;-70
2022/08/15 02:18:57;;;;;;;12.65;7.70;;;21.90;96.40;;;;;;5155183;27;20172;-75
2022/08/15 02:21:23;;;;;;;;;;;21.80;96.90;;;;;;5155660;27;20053;-71
2022/08/15 02:23:48;;;;;;;12.38;7.70;;;21.70;97.00;;;;;;5155141;27;20006;-69
2022/08/15 02:26:14;;;;;;;11.90;7.60;;;21.70;96.70;;;;;;5136308;27;20078;-70
2022/08/15 02:28:41;;;;;;;13.40;8.10;;;21.70;96.70;;;;;;5136747;27;20148;-70
2022/08/15 02:31:15;;;;;;;12.90;8.45;;;21.60;96.80;;;;;;5154889;27;20057;-72
2022/08/15 02:33:48;;;;;;;13.18;8.23;;;21.60;96.90;;;;;;5119807;27;20478;-70
2022/08/15 02:36:16;;;;;;;13.57;8.20;;;21.60;97.00;;;;;;5137366;27;20479;-70
2022/08/15 02:38:45;;;;;;;14.93;8.60;;;21.50;97.10;;;;;;5155039;27;20049;-71
2022/08/15 02:41:13;;;;;;;15.13;8.52;;;21.50;97.20;;;;;;5154471;27;20042;-70
2022/08/15 02:43:43;;;;;;;14.02;8.98;;;21.50;97.20;;;;;;5119485;27;20110;-71
2022/08/15 02:46:10;;;;;;;11.60;8.05;;;21.40;97.40;;;;;;5136538;27;20190;-70
2022/08/15 02:48:38;;;;;;;12.43;7.70;;;21.40;97.40;;;;;;5136365;27;20098;-70
2022/08/15 02:51:09;;;;;;;12.75;8.23;;;21.30;97.50;;;;;;5119234;27;20054;-70
2022/08/15 02:53:35;;;;;;;12.98;8.30;;;21.30;97.80;;;;;;5155161;27;20148;-71
2022/08/15 02:56:06;;;;;;;14.40;8.13;;;21.20;97.80;;;;;;5154570;27;20057;-72
2022/08/15 02:58:33;;;;;;;14.60;8.05;;;21.10;98.40;;;;;;5155224;27;20082;-70
2022/08/15 03:01:00;;;;;;;15.05;8.70;;;21.10;98.30;;;;;;5119107;27;20115;-75
2022/08/15 03:03:26;;;;;;;13.70;8.57;;;21.10;98.50;;;;;;5154326;27;20561;-71
2022/08/15 03:05:52;;;;;;;12.77;8.40;;;21.00;98.80;;;;;;5135982;27;20047;-71
2022/08/15 03:08:20;;;;;;;15.55;8.60;;;21.00;98.80;;;;;;5154477;27;20086;-70
2022/08/15 03:10:46;;;;;;;15.88;8.50;;;20.90;98.90;;;;;;5135807;27;20507;-71
2022/08/15 03:13:15;;;;;;;13.65;8.00;;;20.90;98.90;;;;;;5155339;27;20050;-71
2022/08/15 03:15:52;;;;;;;15.45;8.63;;;20.90;99.20;;;;;;5155202;27;20047;-70
2022/08/15 03:18:20;;;;;;;13.13;7.88;;;21.00;99.40;;;;;;5119056;27;20503;-70
2022/08/15 03:20:49;;;;;;;11.05;7.85;;;20.90;99.90;;;;;;5135597;27;20057;-70
2022/08/15 03:23:16;;;;;;;18.05;8.20;;;20.90;99.90;;;;;;5136793;27;20057;-71
2022/08/15 03:25:48;;;;;;;16.00;8.73;;;20.80;99.90;;;;;;5136724;27;20038;-70
2022/08/15 03:28:18;;;;;;;12.98;8.18;;;20.70;99.90;;;;;;5154447;27;20090;-69
2022/08/15 03:30:43;;;;;;;12.98;8.52;;;20.60;99.90;;;;;;5154619;27;20374;-71
2022/08/15 03:33:09;;;;;;;14.53;9.00;;;20.50;99.90;;;;;;5136033;27;20051;-71
2022/08/15 03:35:42;;;;;;;13.30;8.40;;;20.40;99.90;;;;;;5136460;27;20122;-71
2022/08/15 03:38:08;;;;;;;15.27;9.25;;;20.40;99.90;;;;;;5154105;27;20498;-71
2022/08/15 03:40:35;;;;;;;14.98;8.00;;;20.40;99.90;;;;;;5119005;27;20051;-71
2022/08/15 03:43:09;;;;;;;12.55;8.15;;;20.40;99.90;;;;;;5135697;27;20043;-70
2022/08/15 03:45:35;;;;;;;16.35;8.88;;;20.40;99.90;;;;;;5155119;27;20058;-71
2022/08/15 03:48:02;;;;;;;13.70;8.63;;;20.40;99.90;;;;;;5136232;27;20046;-70
2022/08/15 03:50:29;;;;;;;16.27;8.85;;;20.40;99.90;;;;;;5119296;27;20088;-70
2022/08/15 03:52:58;;;;;;;18.75;9.27;;;20.40;99.90;;;;;;5154542;27;20043;-69
2022/08/15 03:55:25;;;;;;;14.13;8.32;;;20.40;99.90;;;;;;5118548;27;20081;-74
2022/08/15 03:57:52;;;;;;;12.90;8.65;;;20.30;99.90;;;;;;5136057;27;20047;-71
2022/08/15 04:00:19;;;;;;;;;;;20.30;99.90;;;;;;5154400;27;20046;-70
2022/08/15 04:02:44;;;;;;;16.50;8.80;;;20.30;99.90;;;;;;5153833;27;20059;-70
2022/08/15 04:05:11;;;;;;;15.73;9.33;;;20.20;99.90;;;;;;5118832;27;20153;-70
2022/08/15 04:07:37;;;;;;;15.02;9.07;;;20.20;99.90;;;;;;5135750;27;20075;-72
2022/08/15 04:10:06;;;;;;;14.55;8.80;;;20.20;99.90;;;;;;5135603;27;20062;-71
2022/08/15 04:12:35;;;;;;;15.00;8.98;;;20.20;99.90;;;;;;5153688;27;20047;-70
2022/08/15 04:15:05;;;;;;;13.25;8.93;;;20.20;99.90;;;;;;5153976;27;20035;-70
2022/08/15 04:17:31;;;;;;;17.08;8.68;;;20.20;99.90;;;;;;5154341;27;20042;-70
2022/08/15 04:19:57;;;;;;;18.50;8.85;;;20.20;99.90;;;;;;5136171;27;20061;-70
2022/08/15 04:22:35;;;;;;;16.30;9.88;;;20.20;99.90;;;;;;5153606;27;20082;-74
2022/08/15 04:25:09;;;;;;;15.68;9.05;;;20.30;99.90;;;;;;5153743;27;20085;-70
2022/08/15 04:27:35;;;;;;;14.65;9.10;;;20.30;99.90;;;;;;5153927;27;20054;-70
2022/08/15 04:30:01;;;;;;;15.20;9.10;;;20.30;99.90;;;;;;5136135;27;20050;-71
2022/08/15 04:32:27;;;;;;;14.98;9.10;;;20.30;99.90;;;;;;5157540;27;20078;-70
2022/08/15 04:34:54;;;;;;;15.50;8.60;;;20.30;99.90;;;;;;5156999;27;20078;-71
2022/08/15 04:37:22;;;;;;;17.50;9.23;;;20.30;99.90;;;;;;5157282;27;20047;-73
2022/08/15 04:39:50;;;;;;;15.48;9.02;;;20.30;99.90;;;;;;5157313;27;20047;-70
2022/08/15 04:42:19;;;;;;;14.50;8.48;;;20.30;99.90;;;;;;5138510;27;20046;-70
2022/08/15 04:44:46;;;;;;;15.02;8.80;;;20.20;99.90;;;;;;5138307;27;20054;-70
2022/08/15 04:47:12;;;;;;;14.65;9.20;;;20.20;99.90;;;;;;5157112;27;20054;-73
2022/08/15 04:49:38;;;;;;;16.48;9.00;;;20.30;99.90;;;;;;5157142;27;20118;-71
2022/08/15 04:52:14;;;;;;;14.87;9.00;;;20.20;99.90;;;;;;5138555;27;20500;-69
2022/08/15 04:54:40;;;;;;;19.70;8.45;;;20.20;99.90;;;;;;5138460;27;20051;-69
2022/08/15 04:57:08;;;;;;;;;;;20.30;99.90;;;;;;5157675;27;20050;-72
2022/08/15 04:59:36;;;;;;;17.00;8.88;;;20.30;99.90;;;;;;5157045;27;19915;-70
2022/08/15 05:02:03;;;;;;;13.63;8.70;;;20.30;99.90;;;;;;5138689;27;20047;-70
2022/08/15 05:04:29;;;;;;;16.02;9.48;;;20.40;99.90;;;;;;5138469;27;20035;-70
2022/08/15 05:06:55;;;;;;;14.67;9.17;;;20.40;99.90;;;;;;5156701;27;20045;-69
2022/08/15 05:09:20;;;;;;;15.60;9.67;;;20.50;99.90;;;;;;5138963;27;20046;-69
2022/08/15 05:11:46;;;;;;;13.57;9.03;;;20.50;99.90;;;;;;5137810;27;20091;-70
2022/08/15 05:14:12;;;;;;;15.50;9.27;;;20.50;99.90;;;;;;5138198;27;20069;-69
2022/08/15 05:16:37;;;;;;;16.30;9.80;;;20.60;99.90;;;;;;5156748;27;20133;-69
2022/08/15 05:19:03;;;;;;;19.33;9.00;;;20.60;99.90;;;;;;5120993;27;20050;-69
2022/08/15 05:21:29;;;;;;;14.20;9.38;;;20.70;99.90;;;;;;5156523;27;20462;-69
2022/08/15 05:23:55;;;;;;;13.20;8.67;;;20.70;99.90;;;;;;5156479;27;20126;-70
2022/08/15 05:26:21;;;;;;;17.83;10.13;;;20.70;99.90;;;;;;5156824;27;20447;-69
2022/08/15 05:28:47;;;;;;;13.48;9.13;;;20.70;99.90;;;;;;5156396;27;20046;-70
2022/08/15 05:31:13;;;;;;;15.80;8.70;;;20.70;99.90;;;;;;5138092;27;20087;-69
2022/08/15 05:33:42;;;;;;;15.10;10.15;;;20.80;99.90;;;;;;5120494;27;20039;-69
2022/08/15 05:36:09;;;;;;;15.93;9.93;;;20.80;99.90;;;;;;5156397;27;20042;-69
2022/08/15 05:38:36;;;;;;;15.32;9.80;;;20.80;99.90;;;;;;5156599;27;20066;-71
2022/08/15 05:41:21;;;;;;;15.10;9.68;;;20.80;99.90;;;;;;5157076;27;20150;-69
2022/08/15 05:44:06;;;;;;;22.50;10.35;;;20.80;99.90;;;;;;5136889;27;20668;-70
2022/08/15 05:46:55;;;;;;;17.88;10.00;;;20.90;99.90;;;;;;5138190;27;20053;-70
2022/08/15 05:49:27;;;;;;;15.40;9.95;;;20.90;99.90;;;;;;5139135;27;20053;-72
2022/08/15 05:52:17;;;;;;;17.92;10.75;;;20.90;99.90;;;;;;5157555;27;20493;-70
2022/08/15 05:55:02;;;;;;;15.20;9.07;;;21.00;99.90;;;;;;5138359;27;20061;-70
2022/08/15 05:58:03;;;;;;;16.20;9.52;;;21.00;99.90;;;;;;5140123;27;20348;-71
2022/08/15 06:00:30;;;;;;;15.90;9.57;;;21.10;99.90;;;;;;5158246;27;20057;-69
2022/08/15 06:03:03;;;;;;;15.50;10.18;;;21.00;99.90;;;;;;5123640;27;20062;-70
2022/08/15 06:05:37;;;;;;;16.42;10.90;;;21.10;99.90;;;;;;5123164;27;20074;-70
2022/08/15 06:08:10;;;;;;;22.90;10.63;;;21.10;99.90;;;;;;5140417;27;20030;-72
2022/08/15 06:10:42;;;;;;;17.92;11.20;;;21.30;99.90;;;;;;5159060;27;20047;-69
2022/08/15 06:13:20;;;;;;;19.60;11.02;;;21.30;99.90;;;;;;5141288;27;20122;-70
2022/08/15 06:16:00;;;;;;;17.15;10.95;;;21.30;99.90;;;;;;5141241;27;20043;-70
2022/08/15 06:18:29;;;;;;;17.10;11.13;;;21.40;99.90;;;;;;5159524;27;20095;-71
2022/08/15 06:21:02;;;;;;;17.42;11.68;;;21.40;99.90;;;;;;5122466;27;20107;-70
2022/08/15 06:24:09;;;;;;;21.13;12.05;;;21.40;99.90;;;;;;5140781;27;20057;-70
2022/08/15 06:26:59;;;;;;;17.33;11.10;;;21.50;99.90;;;;;;5158454;27;20072;-69
2022/08/15 06:29:54;;;;;;;21.20;11.55;;;21.70;99.90;;;;;;5157756;27;20501;-74
2022/08/15 06:32:40;;;;;;;23.50;11.63;;;21.80;99.90;;;;;;5156246;27;20062;-69
2022/08/15 06:35:31;;;;;;;19.13;12.05;;;21.90;99.90;;;;;;5156010;27;20129;-72
2022/08/15 06:38:40;;;;;;;16.73;10.80;;;22.00;99.90;;;;;;5156018;27;20047;-73
2022/08/15 06:41:28;;;;;;;18.38;11.55;;;22.10;99.90;;;;;;5107881;27;20051;-70
2022/08/15 06:43:56;;;;;;;20.80;11.40;;;22.10;99.90;;;;;;5139746;27;20061;-71
2022/08/15 06:46:25;;;;;;;21.08;11.70;;;22.00;99.90;;;;;;5158720;27;20047;-70
2022/08/15 06:48:51;;;;;;;18.90;11.75;;;22.20;99.90;;;;;;5124161;27;20050;-71
2022/08/15 06:51:17;;;;;;;21.30;11.75;;;22.20;99.90;;;;;;5122872;27;20039;-71
2022/08/15 06:53:58;;;;;;;17.70;10.73;;;22.30;99.90;;;;;;5157696;27;20117;-71
2022/08/15 06:56:33;;;;;;;19.15;11.55;;;22.40;99.90;;;;;;5138729;27;20133;-74
2022/08/15 06:59:19;;;;;;;19.95;11.77;;;22.50;99.90;;;;;;5139142;27;20133;-71
2022/08/15 07:02:09;;;;;;;16.67;10.73;;;22.60;99.90;;;;;;5137863;27;20042;-67
2022/08/15 07:04:52;;;;;;;17.85;10.70;;;22.70;99.90;;;;;;5137458;27;20039;-69
2022/08/15 07:07:37;;;;;;;20.25;11.10;;;22.90;99.90;;;;;;5156383;27;20158;-69
2022/08/15 07:10:15;;;;;;;19.42;11.25;;;23.00;99.90;;;;;;5138384;27;20079;-70
2022/08/15 07:13:12;;;;;;;16.00;11.35;;;23.10;99.90;;;;;;5157861;27;20042;-69
2022/08/15 07:15:56;;;;;;;18.80;12.07;;;23.10;99.70;;;;;;5140544;27;20083;-70
2022/08/15 07:18:28;;;;;;;18.88;11.60;;;23.20;99.60;;;;;;5136897;27;20086;-69
2022/08/15 07:21:07;;;;;;;20.83;11.48;;;23.40;99.30;;;;;;5137691;27;20046;-69
2022/08/15 07:23:35;;;;;;;18.23;10.27;;;23.50;98.80;;;;;;5158321;27;20050;-70
2022/08/15 07:26:07;;;;;;;18.77;12.10;;;23.60;98.80;;;;;;5141285;27;20038;-70
2022/08/15 07:28:35;;;;;;;19.83;12.55;;;23.70;98.00;;;;;;5157093;27;20043;-70
2022/08/15 07:31:11;;;;;;;19.65;10.88;;;23.80;97.50;;;;;;5122722;27;20042;-71
2022/08/15 07:33:47;;;;;;;19.33;12.38;;;23.80;97.80;;;;;;5139075;27;20080;-71
2022/08/15 07:36:12;;;;;;;18.45;12.65;;;23.90;97.80;;;;;;5138315;27;20045;-70
2022/08/15 07:38:39;;;;;;;25.13;13.50;;;24.00;97.30;;;;;;5120561;27;20055;-71
2022/08/15 07:41:15;;;;;;;24.17;12.93;;;24.00;97.40;;;;;;5137726;27;20054;-69
2022/08/15 07:43:41;;;;;;;20.05;13.70;;;24.10;97.50;;;;;;5137300;27;20545;-70
2022/08/15 07:46:14;;;;;;;21.20;13.17;;;24.10;97.70;;;;;;5137498;27;20042;-70
2022/08/15 07:48:40;;;;;;;19.83;13.77;;;24.20;97.30;;;;;;5136932;27;20134;-70
2022/08/15 07:51:23;;;;;;;21.15;13.35;;;24.20;97.00;;;;;;5136413;27;20375;-69
2022/08/15 07:54:01;;;;;;;26.17;14.90;;;24.20;97.30;;;;;;5136461;27;20442;-70
2022/08/15 07:56:30;;;;;;;25.73;13.63;;;24.40;97.30;;;;;;5155694;27;20076;-71
2022/08/15 07:59:08;;;;;;;22.08;14.52;;;24.40;97.20;;;;;;5154489;27;20042;-69
2022/08/15 08:01:33;;;;;;;26.23;16.90;;;24.50;96.90;;;;;;5137458;27;20062;-72
2022/08/15 08:04:05;;;;;;;25.80;17.10;;;24.60;96.40;;;;;;5138051;27;20042;-72
2022/08/15 08:06:40;;;;;;;26.42;16.58;;;24.70;95.90;;;;;;5158435;27;20739;-75
2022/08/15 08:09:39;;;;;;;29.33;17.20;;;24.70;95.80;;;;;;5141339;27;20038;-71
2022/08/15 08:12:31;;;;;;;24.27;15.82;;;24.70;95.70;;;;;;5124725;27;20551;-71
2022/08/15 08:15:26;;;;;;;26.92;17.02;;;24.60;96.20;;;;;;5160283;27;20051;-73
2022/08/15 08:18:48;;;;;;;26.63;17.50;;;24.80;95.30;;;;;;5158823;27;20465;-70
2022/08/15 08:21:23;;;;;;;30.92;16.95;;;24.90;95.80;;;;;;5101020;27;20050;-70
2022/08/15 08:23:56;;;;;;;26.13;17.73;;;25.10;95.80;;;;;;5140172;27;20474;-70
2022/08/15 08:26:44;;;;;;;29.35;17.60;;;25.20;95.40;;;;;;5139194;27;20142;-72
2022/08/15 08:29:26;;;;;;;30.42;18.27;;;25.30;95.40;;;;;;5139275;27;20496;-74
2022/08/15 08:32:12;;;;;;;29.67;18.13;;;25.10;94.20;;;;;;5158163;27;20143;-73
2022/08/15 08:35:30;;;;;;;28.23;18.33;;;25.20;95.10;;;;;;5158143;27;20082;-72
2022/08/15 08:38:20;;;;;;;29.08;19.40;;;25.40;94.80;;;;;;5116578;27;20054;-71
2022/08/15 08:41:31;;;;;;;30.45;19.38;;;25.50;94.70;;;;;;5122048;27;20064;-70
2022/08/15 08:44:02;;;;;;;27.38;18.20;;;25.30;93.90;;;;;;5138582;27;20054;-69
2022/08/15 08:46:35;;;;;;;32.65;17.50;;;25.30;94.70;;;;;;5157255;27;20058;-69
2022/08/15 08:49:30;;;;;;;28.30;18.08;;;25.40;94.70;;;;;;5139096;27;20050;-70
2022/08/15 08:52:19;;;;;;;24.90;16.40;;;25.50;94.80;;;;;;5099576;27;20459;-70
2022/08/15 08:55:06;;;;;;;31.20;17.05;;;25.70;94.80;;;;;;5157459;27;20039;-70
2022/08/15 08:57:40;;;;;;;31.33;18.75;;;25.80;94.70;;;;;;5157301;27;20406;-70
2022/08/15 09:00:16;;;;;;;30.83;19.25;;;25.90;94.20;;;;;;5157164;27;20463;-73
2022/08/15 09:02:47;;;;;;;30.55;18.70;;;25.90;94.00;;;;;;5121465;27;20042;-70
2022/08/15 09:05:30;;;;;;;28.27;19.27;;;25.80;93.90;;;;;;5157487;27;20043;-69
2022/08/15 09:08:02;;;;;;;30.88;20.10;;;25.70;94.30;;;;;;5157089;27;20058;-72
2022/08/15 09:10:34;;;;;;;31.23;18.80;;;25.90;93.80;;;;;;5157349;27;20046;-71
2022/08/15 09:15:48;;;;;;;30.08;19.35;;;25.80;93.60;;;;;;5138477;27;20059;-70
2022/08/15 09:18:55;;;;;;;26.75;18.15;;;25.70;93.80;;;;;;5119836;27;20403;-71
2022/08/15 09:21:21;;;;;;;34.13;19.08;;;25.40;94.30;;;;;;5088034;27;20055;-71
2022/08/15 09:23:47;;;;;;;30.45;17.35;;;25.20;94.50;;;;;;5120892;27;20054;-71
2022/08/15 09:26:24;;;;;;;26.38;17.98;;;25.10;94.70;;;;;;5138394;27;20042;-70
2022/08/15 09:29:22;;;;;;;25.88;17.70;;;24.90;95.30;;;;;;5138613;27;20042;-69
2022/08/15 09:32:14;;;;;;;31.65;19.15;;;24.90;95.20;;;;;;5127925;27;20139;-72
2022/08/15 09:34:49;;;;;;;33.85;19.92;;;24.90;95.20;;;;;;5138140;27;20434;-74
2022/08/15 09:37:36;;;;;;;32.15;19.17;;;24.80;95.30;;;;;;5121316;27;20049;-70
2022/08/15 09:40:20;;;;;;;30.83;20.05;;;24.80;95.50;;;;;;5155776;27;20070;-70
2022/08/15 09:43:04;;;;;;;30.63;19.88;;;24.80;95.50;;;;;;5155716;27;20130;-71
2022/08/15 09:45:45;;;;;;;33.67;20.75;;;24.80;95.60;;;;;;5156159;27;20133;-73
2022/08/15 09:48:19;;;;;;;31.98;19.55;;;24.70;95.70;;;;;;5155921;27;20046;-71
2022/08/15 09:51:00;;;;;;;31.23;18.55;;;24.70;95.80;;;;;;5137821;27;20091;-71
2022/08/15 09:53:46;;;;;;;33.97;19.92;;;24.80;95.90;;;;;;5137294;27;20072;-71
2022/08/15 09:56:18;;;;;;;32.33;18.45;;;24.70;96.00;;;;;;5136776;27;20069;-72
2022/08/15 09:59:02;;;;;;;31.35;19.38;;;24.90;96.00;;;;;;5138083;27;20432;-73
2022/08/15 10:01:40;;;;;;;30.90;19.58;;;25.10;95.80;;;;;;5104435;27;20076;-71
2022/08/15 10:04:09;;;;;;;29.38;17.98;;;25.10;95.50;;;;;;5137697;27;20372;-71
2022/08/15 10:07:04;;;;;;;28.40;18.65;;;25.20;95.50;;;;;;5155685;27;20051;-71
2022/08/15 10:09:37;;;;;;;26.33;17.95;;;25.20;95.40;;;;;;5155784;27;20051;-71
2022/08/15 10:12:06;;;;;;;26.90;18.70;;;25.30;95.50;;;;;;5155732;27;20078;-72
2022/08/15 10:14:47;;;;;;;29.42;17.67;;;25.30;95.50;;;;;;5120686;27;20038;-72
2022/08/15 10:17:39;;;;;;;32.30;19.48;;;25.40;95.40;;;;;;5136909;27;20478;-73
2022/08/15 10:20:14;;;;;;;32.92;19.40;;;25.60;95.20;;;;;;5120265;27;20521;-71
2022/08/15 10:22:51;;;;;;;28.92;19.85;;;25.70;95.30;;;;;;5155366;27;20184;-70
2022/08/15 10:25:17;;;;;;;;;;;26.00;94.70;;;;;;5137303;27;20046;-71
2022/08/15 10:27:53;;;;;;;32.20;19.85;;;26.30;94.30;;;;;;5155644;27;19925;-72
2022/08/15 10:30:23;;;;;;;33.13;20.52;;;26.70;94.30;;;;;;5136864;27;20050;-72
2022/08/15 10:32:53;;;;;;;32.03;19.77;;;26.80;94.20;;;;;;5120428;27;20058;-76
2022/08/15 10:35:31;;;;;;;34.95;19.88;;;27.10;93.80;;;;;;5136605;27;20134;-71
2022/08/15 10:38:03;;;;;;;34.47;20.10;;;27.30;92.70;;;;;;5155667;27;20082;-72
2022/08/15 10:40:41;;;;;;;35.88;20.75;;;27.20;92.60;;;;;;5119598;27;20046;-65
2022/08/15 10:43:20;;;;;;;33.72;20.67;;;27.10;92.70;;;;;;5137002;27;20043;-70
2022/08/15 10:46:06;;;;;;;29.98;19.35;;;27.00;92.90;;;;;;5119611;27;20050;-71
2022/08/15 10:48:37;;;;;;;30.52;20.75;;;27.00;93.00;;;;;;5154898;27;20086;-69
2022/08/15 10:51:16;;;;;;;31.20;19.85;;;26.90;93.00;;;;;;5136967;27;20129;-69
2022/08/15 10:54:09;;;;;;;30.88;18.83;;;26.90;93.30;;;;;;5155126;27;20042;-70
2022/08/15 10:56:38;;;;;;;32.33;20.30;;;26.70;93.50;;;;;;5136570;27;20405;-73
2022/08/15 10:59:14;;;;;;;28.33;18.83;;;26.60;93.70;;;;;;5154388;27;20043;-69
2022/08/15 11:01:43;;;;;;;;;;;26.40;94.10;;;;;;5119666;27;20077;-76
2022/08/15 11:04:23;;;;;;;34.28;20.48;;;26.30;94.50;;;;;;5136100;27;19960;-70
2022/08/15 11:06:50;;;;;;;31.02;18.80;;;26.30;94.30;;;;;;5136366;27;20043;-69
2022/08/15 11:09:20;;;;;;;30.15;19.05;;;26.50;94.50;;;;;;5136613;27;20049;-70
2022/08/15 11:12:00;;;;;;;30.50;19.83;;;26.80;94.10;;;;;;5154256;27;20046;-70
2022/08/15 11:14:39;;;;;;;31.15;19.38;;;27.10;93.80;;;;;;5154372;27;20050;-70
2022/08/15 11:17:14;;;;;;;30.77;20.15;;;27.40;93.50;;;;;;5136152;27;20043;-73
2022/08/15 11:19:44;;;;;;;29.10;18.85;;;27.60;92.80;;;;;;5136771;27;20047;-69
2022/08/15 11:22:20;;;;;;;34.10;20.83;;;27.60;92.90;;;;;;5118710;27;20053;-71
2022/08/15 11:25:03;;;;;;;31.67;21.48;;;27.40;92.70;;;;;;5154199;27;20039;-70
2022/08/15 11:27:30;;;;;;;31.15;19.70;;;27.10;93.40;;;;;;5135408;27;20057;-72
2022/08/15 11:29:58;;;;;;;30.85;19.08;;;27.50;93.40;;;;;;5135813;27;20042;-70
2022/08/15 11:32:28;;;;;;;28.77;17.50;;;27.80;93.10;;;;;;5135860;27;20058;-72
2022/08/15 11:34:55;;;;;;;26.88;19.35;;;27.90;92.90;;;;;;5135997;27;20399;-70
2022/08/15 11:37:24;;;;;;;29.10;18.17;;;27.70;92.60;;;;;;5154020;27;20047;-71
2022/08/15 11:40:21;;;;;;;29.75;18.80;;;28.00;92.80;;;;;;5154115;27;20049;-70
2022/08/15 11:42:50;;;;;;;31.77;19.00;;;28.20;92.90;;;;;;5139177;27;20090;-71
2022/08/15 11:45:20;;;;;;;23.73;16.13;;;28.50;92.30;;;;;;5139826;27;20130;-71
2022/08/15 11:47:55;;;;;;;25.50;16.80;;;28.60;91.10;;;;;;5140598;27;20406;-71
2022/08/15 11:50:26;;;;;;;25.92;16.48;;;28.60;91.10;;;;;;5140799;27;20054;-75
2022/08/15 11:52:56;;;;;;;25.58;17.45;;;28.60;91.50;;;;;;5159110;27;20050;-72
2022/08/15 11:55:40;;;;;;;25.08;16.45;;;28.60;91.30;;;;;;5158473;27;20118;-77
2022/08/15 11:58:12;;;;;;;26.88;17.63;;;28.60;91.40;;;;;;5140795;27;20070;-71
2022/08/15 12:00:42;;;;;;;24.25;15.25;;;28.50;91.20;;;;;;5158482;27;20094;-73
2022/08/15 12:03:30;;;;;;;24.92;14.52;;;28.50;91.00;;;;;;5158329;27;20061;-72
2022/08/15 12:06:25;;;;;;;23.63;14.30;;;28.50;90.70;;;;;;5139430;27;20043;-72
2022/08/15 12:08:51;;;;;;;23.67;14.48;;;28.50;90.60;;;;;;5158274;27;20038;-70
2022/08/15 12:11:23;;;;;;;24.42;13.88;;;28.30;91.00;;;;;;5157712;27;20039;-71
2022/08/15 12:13:54;;;;;;;17.55;12.88;;;28.40;91.10;;;;;;5139698;27;20039;-72
2022/08/15 12:16:45;;;;;;;23.15;13.25;;;28.60;90.90;;;;;;5157777;27;20043;-71
2022/08/15 12:19:35;;;;;;;19.35;12.85;;;28.80;90.00;;;;;;5139568;27;20085;-75
2022/08/15 12:22:08;;;;;;;18.63;10.60;;;28.90;87.70;;;;;;5139110;27;20222;-75
2022/08/15 12:24:36;;;;;;;20.42;12.30;;;28.90;88.40;;;;;;5158154;27;20049;-74
2022/08/15 12:27:05;;;;;;;17.15;11.35;;;29.00;88.00;;;;;;5139164;27;20038;-75
2022/08/15 12:29:32;;;;;;;16.95;11.32;;;29.10;88.10;;;;;;5157587;27;20046;-71
2022/08/15 12:32:00;;;;;;;15.70;10.73;;;29.00;87.00;;;;;;5139049;27;20129;-72
2022/08/15 12:34:36;;;;;;;18.83;11.25;;;29.00;87.20;;;;;;5122625;27;20479;-71
2022/08/15 12:37:08;;;;;;;19.50;12.38;;;29.20;85.80;;;;;;5139867;27;20038;-71
2022/08/15 12:39:46;;;;;;;12.98;10.20;;;29.20;85.70;;;;;;5157616;27;20046;-73
2022/08/15 12:42:20;;;;;;;17.50;9.73;;;29.10;85.60;;;;;;5139291;27;20550;-76
2022/08/15 12:44:49;;;;;;;15.80;10.50;;;29.10;85.20;;;;;;5157534;27;20466;-73
2022/08/15 12:47:16;;;;;;;17.45;10.43;;;29.00;86.00;;;;;;5138698;27;20049;-73
2022/08/15 12:49:43;;;;;;;17.50;11.05;;;29.10;86.40;;;;;;5138954;27;20051;-73
2022/08/15 12:52:10;;;;;;;16.50;10.90;;;29.10;86.70;;;;;;5139286;27;20057;-71
2022/08/15 12:54:38;;;;;;;;;;;29.00;85.80;;;;;;5157885;27;20103;-73
2022/08/15 12:57:04;;;;;;;19.98;12.13;;;28.80;87.50;;;;;;5158817;27;20402;-72
2022/08/15 12:59:31;;;;;;;17.38;11.50;;;29.00;86.70;;;;;;5157539;27;20039;-72
2022/08/15 13:01:57;;;;;;;;;;;28.90;87.00;;;;;;5138819;27;20051;-73
2022/08/15 13:04:24;;;;;;;18.98;12.73;;;29.00;87.10;;;;;;5138175;27;19919;-72
2022/08/15 13:06:56;;;;;;;20.33;13.02;;;28.90;86.90;;;;;;5138554;27;20130;-73
2022/08/15 13:09:24;;;;;;;17.30;12.05;;;29.00;86.90;;;;;;5157212;27;20046;-72
2022/08/15 13:11:50;;;;;;;21.08;12.30;;;28.60;86.90;;;;;;5156736;27;20111;-72
2022/08/15 13:14:17;;;;;;;;;;;28.80;87.40;;;;;;5122533;27;20046;-73